createdAt,value
2023-03-11T00:00:22.843Z,14.57
2023-03-11T00:02:52.238Z,14.48
2023-03-11T00:05:25.274Z,14.48
2023-03-11T00:07:52.151Z,13.98
2023-03-11T00:10:34.868Z,14.33
2023-03-11T00:13:02.033Z,14.38
2023-03-11T00:15:29.392Z,14.36
2023-03-11T00:17:56.564Z,14.38
2023-03-11T00:20:32.944Z,14.32
2023-03-11T00:23:00.180Z,14.38
2023-03-11T00:25:31.910Z,14.77
2023-03-11T00:27:59.568Z,14.59
2023-03-11T00:30:26.466Z,14.64
2023-03-11T00:32:55.303Z,14.40
2023-03-11T00:35:28.266Z,14.03
2023-03-11T00:37:57.990Z,14.22
2023-03-11T00:40:28.825Z,14.20
2023-03-11T00:42:56.029Z,14.19
2023-03-11T00:45:23.430Z,13.80
2023-03-11T00:47:51.131Z,13.34
2023-03-11T00:50:24.582Z,13.99
2023-03-11T00:52:52.581Z,13.96
2023-03-11T00:55:25.978Z,13.81
2023-03-11T00:57:58.822Z,14.15
2023-03-11T01:00:29.547Z,13.78
2023-03-11T01:02:57.386Z,14.32
2023-03-11T01:05:26.692Z,14.26
2023-03-11T01:07:55.552Z,14.08
2023-03-11T01:10:22.270Z,13.68
2023-03-11T01:12:49.157Z,13.59
2023-03-11T01:15:26.642Z,13.88
2023-03-11T01:17:53.305Z,13.77
2023-03-11T01:20:20.068Z,13.55
2023-03-11T01:22:46.757Z,13.45
2023-03-11T01:25:18.590Z,13.15
2023-03-11T01:27:46.125Z,13.19
2023-03-11T01:30:20.609Z,13.31
2023-03-11T01:32:47.958Z,13.34
2023-03-11T01:35:16.235Z,13.51
2023-03-11T01:37:43.486Z,13.35
2023-03-11T01:40:17.105Z,13.28
2023-03-11T01:42:43.860Z,13.38
2023-03-11T01:45:25.725Z,13.63
2023-03-11T01:47:52.473Z,13.55
2023-03-11T01:50:19.186Z,13.52
2023-03-11T01:52:46.401Z,13.78
2023-03-11T01:55:15.242Z,13.71
2023-03-11T01:57:43.248Z,13.63
2023-03-11T02:00:12.687Z,13.51
2023-03-11T02:02:44.163Z,13.50
2023-03-11T02:05:11.860Z,13.83
2023-03-11T02:07:40.334Z,13.76
2023-03-11T02:10:11.079Z,13.56
2023-03-11T02:12:38.053Z,13.49
2023-03-11T02:15:09.759Z,13.62
2023-03-11T02:17:38.238Z,13.59
2023-03-11T02:20:31.161Z,14.11
2023-03-11T02:22:58.347Z,13.91
2023-03-11T02:25:43.045Z,13.96
2023-03-11T02:28:15.409Z,13.87
2023-03-11T02:30:46.489Z,13.65
2023-03-11T02:33:14.738Z,13.59
2023-03-11T02:35:45.424Z,13.72
2023-03-11T02:38:14.008Z,13.52
2023-03-11T02:40:49.689Z,13.65
2023-03-11T02:43:24.321Z,13.64
2023-03-11T02:45:51.466Z,13.57
2023-03-11T02:48:21.499Z,13.60
2023-03-11T02:50:48.604Z,13.63
2023-03-11T02:53:17.262Z,13.50
2023-03-11T02:55:43.964Z,13.51
2023-03-11T02:58:10.713Z,13.48
2023-03-11T03:00:38.336Z,13.20
2023-03-11T03:03:07.335Z,13.53
2023-03-11T03:05:34.051Z,13.47
2023-03-11T03:08:02.756Z,13.43
2023-03-11T03:10:29.546Z,13.36
2023-03-11T03:12:57.132Z,13.24
2023-03-11T03:15:24.893Z,13.00
2023-03-11T03:17:51.897Z,13.06
2023-03-11T03:20:18.862Z,13.09
2023-03-11T03:22:52.901Z,13.03
2023-03-11T03:25:22.763Z,13.22
2023-03-11T03:27:50.686Z,12.77
2023-03-11T03:30:20.760Z,13.00
2023-03-11T03:32:48.168Z,12.87
2023-03-11T03:35:16.791Z,12.71
2023-03-11T03:37:58.903Z,12.81
2023-03-11T03:40:26.571Z,12.91
2023-03-11T03:42:54.886Z,12.81
2023-03-11T03:45:22.105Z,12.86
2023-03-11T03:47:51.851Z,12.83
2023-03-11T03:50:20.567Z,12.66
2023-03-11T03:52:49.229Z,12.30
2023-03-11T03:55:16.209Z,12.30
2023-03-11T03:57:42.901Z,12.27
2023-03-11T04:00:13.871Z,12.25
2023-03-11T04:02:40.746Z,12.17
2023-03-11T04:05:13.487Z,12.22
2023-03-11T04:07:41.715Z,12.13
2023-03-11T04:10:09.312Z,12.03
2023-03-11T04:12:37.149Z,11.91
2023-03-11T04:15:04.935Z,12.00
2023-03-11T04:17:31.811Z,12.14
2023-03-11T04:19:58.636Z,11.95
2023-03-11T04:22:25.565Z,11.98
2023-03-11T04:24:52.261Z,11.83
2023-03-11T04:27:18.999Z,11.83
2023-03-11T04:29:46.039Z,12.04
2023-03-11T04:32:12.902Z,11.88
2023-03-11T04:34:42.146Z,12.25
2023-03-11T04:37:09.933Z,12.11
2023-03-11T04:39:37.094Z,12.23
2023-03-11T04:42:04.246Z,12.05
2023-03-11T04:44:36.460Z,12.93
2023-03-11T04:47:05.213Z,12.68
2023-03-11T04:49:31.998Z,12.93
2023-03-11T04:51:58.831Z,13.20
2023-03-11T04:54:26.790Z,13.11
2023-03-11T04:56:54.088Z,12.81
2023-03-11T04:59:22.239Z,12.95
2023-03-11T05:01:51.335Z,12.49
2023-03-11T05:04:18.333Z,12.63
2023-03-11T05:06:45.193Z,12.74
2023-03-11T05:09:13.661Z,12.52
2023-03-11T05:11:40.846Z,12.33
2023-03-11T05:14:08.337Z,12.53
2023-03-11T05:16:35.172Z,12.44
2023-03-11T05:19:23.676Z,12.27
2023-03-11T05:21:50.820Z,12.19
2023-03-11T05:24:17.718Z,12.33
2023-03-11T05:26:45.835Z,12.20
2023-03-11T05:29:13.624Z,11.92
2023-03-11T05:31:40.943Z,12.08
2023-03-11T05:34:08.852Z,12.19
2023-03-11T05:36:37.270Z,12.22
2023-03-11T05:39:04.476Z,12.30
2023-03-11T05:41:33.567Z,12.16
2023-03-11T05:44:00.752Z,12.30
2023-03-11T05:46:28.137Z,12.12
2023-03-11T05:48:55.352Z,12.15
2023-03-11T05:51:22.688Z,11.87
2023-03-11T05:53:49.615Z,11.90
2023-03-11T05:56:25.549Z,12.08
2023-03-11T05:58:59.809Z,12.12
2023-03-11T06:01:30.289Z,12.43
2023-03-11T06:03:57.157Z,12.35
2023-03-11T06:06:24.157Z,12.02
2023-03-11T06:08:50.810Z,12.29
2023-03-11T06:11:19.639Z,12.34
2023-03-11T06:13:47.433Z,12.36
2023-03-11T06:16:14.521Z,12.46
2023-03-11T06:18:41.175Z,12.19
2023-03-11T06:21:08.628Z,12.29
2023-03-11T06:23:38.312Z,12.53
2023-03-11T06:26:06.004Z,12.83
2023-03-11T06:28:38.112Z,12.45
2023-03-11T06:31:18.124Z,12.99
2023-03-11T06:33:46.056Z,12.82
2023-03-11T06:36:15.748Z,13.14
2023-03-11T06:38:43.304Z,12.92
2023-03-11T06:41:10.691Z,13.02
2023-03-11T06:43:37.671Z,13.01
2023-03-11T06:46:15.802Z,13.38
2023-03-11T06:48:44.166Z,13.38
2023-03-11T06:51:11.121Z,13.22
2023-03-11T06:53:38.247Z,13.30
2023-03-11T06:56:09.334Z,13.68
2023-03-11T06:58:43.155Z,13.70
2023-03-11T07:01:14.982Z,13.65
2023-03-11T07:03:42.419Z,13.70
2023-03-11T07:06:18.168Z,13.71
2023-03-11T07:08:47.882Z,13.74
2023-03-11T07:11:21.549Z,13.73
2023-03-11T07:13:54.064Z,14.05
2023-03-11T07:16:29.581Z,13.89
2023-03-11T07:19:03.335Z,14.01
2023-03-11T07:21:31.791Z,14.26
2023-03-11T07:24:00.755Z,14.18
2023-03-11T07:26:28.619Z,14.38
2023-03-11T07:28:56.569Z,14.34
2023-03-11T07:31:26.679Z,14.47
2023-03-11T07:33:53.728Z,14.64
2023-03-11T07:36:22.680Z,15.22
2023-03-11T07:38:54.289Z,15.71
2023-03-11T07:41:21.114Z,16.27
2023-03-11T07:43:50.277Z,16.29
2023-03-11T07:46:22.663Z,16.76
2023-03-11T07:48:50.521Z,17.01
2023-03-11T07:51:20.798Z,17.34
2023-03-11T07:53:48.392Z,17.65
2023-03-11T07:56:16.000Z,17.94
2023-03-11T07:58:45.246Z,18.11
2023-03-11T08:01:16.362Z,18.14
2023-03-11T08:03:47.641Z,18.40
2023-03-11T08:06:23.064Z,18.62
2023-03-11T08:08:50.523Z,18.60
2023-03-11T08:11:18.594Z,18.62
2023-03-11T08:13:46.477Z,18.83
2023-03-11T08:16:16.260Z,18.79
2023-03-11T08:18:43.157Z,19.16
2023-03-11T08:21:12.824Z,19.56
2023-03-11T08:23:39.667Z,19.59
2023-03-11T08:26:13.728Z,20.10
2023-03-11T08:28:40.644Z,19.82
2023-03-11T08:31:16.396Z,20.99
2023-03-11T08:33:46.113Z,20.60
2023-03-11T08:36:13.216Z,20.55
2023-03-11T08:38:39.954Z,20.57
2023-03-11T08:41:06.682Z,20.65
2023-03-11T08:43:34.069Z,21.34
2023-03-11T08:46:02.439Z,21.40
2023-03-11T08:48:29.515Z,20.96
2023-03-11T08:50:56.351Z,21.24
2023-03-11T08:53:23.523Z,21.47
2023-03-11T08:55:50.417Z,21.75
2023-03-11T08:58:17.558Z,22.30
2023-03-11T09:00:49.914Z,21.98
2023-03-11T09:03:16.490Z,21.87
2023-03-11T09:05:43.140Z,22.13
2023-03-11T09:08:10.290Z,22.84
2023-03-11T09:10:36.957Z,22.44
2023-03-11T09:13:03.554Z,22.61
2023-03-11T09:15:30.263Z,22.72
2023-03-11T09:17:57.032Z,22.62
2023-03-11T09:20:23.906Z,22.38
2023-03-11T09:22:50.526Z,22.27
2023-03-11T09:25:17.260Z,22.24
2023-03-11T09:27:44.322Z,23.18
2023-03-11T09:30:11.884Z,22.51
2023-03-11T09:32:38.710Z,22.40
2023-03-11T09:35:05.902Z,22.77
2023-03-11T09:37:32.643Z,23.30
2023-03-11T09:39:59.306Z,23.68
2023-03-11T09:42:46.571Z,24.04
2023-03-11T09:45:24.842Z,24.08
2023-03-11T09:48:23.969Z,23.94
2023-03-11T09:51:19.170Z,24.63
2023-03-11T09:53:49.769Z,24.84
2023-03-11T09:56:22.558Z,24.99
2023-03-11T09:58:52.605Z,25.70
2023-03-11T10:01:36.385Z,25.78
2023-03-11T10:04:12.043Z,26.32
2023-03-11T10:06:41.895Z,26.10
2023-03-11T10:09:33.745Z,25.61
2023-03-11T10:12:31.052Z,25.99
2023-03-11T10:15:12.517Z,26.18
2023-03-11T10:17:51.325Z,26.53
2023-03-11T10:20:42.958Z,26.50
2023-03-11T10:23:26.920Z,26.52
2023-03-11T10:25:53.427Z,26.30
2023-03-11T10:28:32.585Z,26.87
2023-03-11T10:31:18.818Z,27.26
2023-03-11T10:33:56.661Z,27.39
2023-03-11T10:36:29.078Z,26.91
2023-03-11T10:38:56.056Z,27.11
2023-03-11T10:41:29.268Z,27.75
2023-03-11T10:44:28.191Z,28.12
2023-03-11T10:46:54.857Z,27.45
2023-03-11T10:49:21.757Z,28.24
2023-03-11T10:51:52.570Z,27.09
2023-03-11T10:54:30.027Z,28.17
2023-03-11T10:57:05.594Z,27.71
2023-03-11T10:59:50.488Z,27.37
2023-03-11T11:02:38.904Z,27.58
2023-03-11T11:05:17.763Z,28.29
2023-03-11T11:07:49.671Z,29.37
2023-03-11T11:10:20.741Z,29.42
2023-03-11T11:12:50.768Z,29.01
2023-03-11T11:15:25.568Z,29.11
2023-03-11T11:17:55.589Z,28.93
2023-03-11T11:20:25.327Z,29.68
2023-03-11T11:22:58.033Z,29.87
2023-03-11T11:25:26.673Z,30.26
2023-03-11T11:27:58.799Z,30.06
2023-03-11T11:30:27.029Z,30.16
2023-03-11T11:32:55.465Z,30.37
2023-03-11T11:35:24.986Z,31.03
2023-03-11T11:38:01.428Z,30.26
2023-03-11T11:40:31.805Z,30.42
2023-03-11T11:43:05.605Z,30.23
2023-03-11T11:45:46.260Z,30.62
2023-03-11T11:48:48.419Z,31.59
2023-03-11T11:51:28.676Z,31.24
2023-03-11T11:54:24.393Z,32.12
2023-03-11T11:56:51.154Z,31.28
2023-03-11T11:59:22.968Z,31.19
2023-03-11T12:02:00.174Z,31.58
2023-03-11T12:04:30.311Z,32.05
2023-03-11T12:07:05.885Z,32.04
2023-03-11T12:09:56.804Z,31.73
2023-03-11T12:12:55.807Z,32.63
2023-03-11T12:15:38.108Z,31.85
2023-03-11T12:18:11.068Z,31.52
2023-03-11T12:20:43.713Z,32.55
2023-03-11T12:23:15.819Z,32.12
2023-03-11T12:26:11.297Z,32.06
2023-03-11T12:29:08.407Z,31.86
2023-03-11T12:31:39.495Z,32.34
2023-03-11T12:34:19.665Z,33.02
2023-03-11T12:36:48.261Z,33.10
2023-03-11T12:39:33.678Z,33.30
2023-03-11T12:42:20.896Z,34.00
2023-03-11T12:44:50.690Z,33.65
2023-03-11T12:47:18.810Z,34.15
2023-03-11T12:50:17.093Z,33.95
2023-03-11T12:52:53.973Z,34.98
2023-03-11T12:55:30.342Z,33.78
2023-03-11T12:58:30.219Z,34.32
2023-03-11T13:01:16.326Z,34.14
2023-03-11T13:03:56.784Z,35.14
2023-03-11T13:06:36.897Z,34.36
2023-03-11T13:09:04.278Z,34.38
2023-03-11T13:11:33.956Z,34.39
2023-03-11T13:14:18.574Z,34.88
2023-03-11T13:16:46.408Z,34.98
2023-03-11T13:19:32.094Z,34.82
2023-03-11T13:22:01.641Z,35.35
2023-03-11T13:24:29.670Z,35.76
2023-03-11T13:26:59.372Z,35.15
2023-03-11T13:29:52.224Z,33.48
2023-03-11T13:32:24.925Z,34.89
2023-03-11T13:34:51.589Z,35.26
2023-03-11T13:37:21.190Z,35.25
2023-03-11T13:39:55.076Z,35.68
2023-03-11T13:42:29.425Z,35.16
2023-03-11T13:44:57.683Z,34.37
2023-03-11T13:47:25.397Z,34.85
2023-03-11T13:49:52.034Z,34.25
2023-03-11T13:52:29.021Z,34.12
2023-03-11T13:55:09.323Z,32.12
2023-03-11T13:57:37.829Z,33.30
2023-03-11T14:00:17.602Z,31.47
2023-03-11T14:02:51.128Z,31.27
2023-03-11T14:05:23.299Z,32.07
2023-03-11T14:07:50.006Z,32.50
2023-03-11T14:10:24.689Z,32.02
2023-03-11T14:12:52.626Z,31.56
2023-03-11T14:15:23.850Z,31.16
2023-03-11T14:17:52.589Z,31.00
2023-03-11T14:20:27.767Z,31.52
2023-03-11T14:22:56.120Z,32.57
2023-03-11T14:25:28.651Z,33.11
2023-03-11T14:28:02.248Z,33.08
2023-03-11T14:30:34.300Z,32.24
2023-03-11T14:33:18.382Z,32.25
2023-03-11T14:35:56.806Z,31.57
2023-03-11T14:38:26.178Z,31.54
2023-03-11T14:41:05.241Z,30.03
2023-03-11T14:43:38.160Z,30.65
2023-03-11T14:46:07.491Z,29.00
2023-03-11T14:48:41.599Z,30.16
2023-03-11T14:51:21.946Z,29.04
2023-03-11T14:54:06.449Z,29.04
2023-03-11T14:56:37.001Z,26.54
2023-03-11T14:59:13.053Z,25.23
2023-03-11T15:01:42.482Z,25.63
2023-03-11T15:04:16.667Z,25.30
2023-03-11T15:06:44.953Z,24.61
2023-03-11T15:09:18.260Z,24.81
2023-03-11T15:11:48.063Z,25.88
2023-03-11T15:14:24.547Z,27.27
2023-03-11T15:16:52.207Z,27.26
2023-03-11T15:19:28.284Z,28.09
2023-03-11T15:21:59.514Z,27.54
2023-03-11T15:24:29.150Z,25.25
2023-03-11T15:27:04.403Z,25.43
2023-03-11T15:29:32.708Z,25.17
2023-03-11T15:32:00.106Z,24.64
2023-03-11T15:34:32.243Z,25.31
2023-03-11T15:37:03.471Z,25.84
2023-03-11T15:39:30.301Z,25.50
2023-03-11T15:42:03.508Z,24.60
2023-03-11T15:44:52.679Z,24.88
2023-03-11T15:47:23.580Z,25.17
2023-03-11T15:49:50.723Z,25.03
2023-03-11T15:52:19.260Z,25.28
2023-03-11T15:54:54.989Z,25.39
2023-03-11T15:57:26.560Z,25.52
2023-03-11T15:59:56.273Z,24.95
2023-03-11T16:02:28.405Z,25.18
2023-03-11T16:04:55.946Z,25.35
2023-03-11T16:07:38.170Z,24.28
2023-03-11T16:10:07.202Z,24.16
2023-03-11T16:12:33.833Z,24.42
2023-03-11T16:15:00.461Z,24.45
2023-03-11T16:17:31.879Z,23.91
2023-03-11T16:20:06.423Z,24.05
2023-03-11T16:22:36.373Z,23.36
2023-03-11T16:25:04.076Z,23.90
2023-03-11T16:27:30.833Z,23.08
2023-03-11T16:29:57.652Z,22.81
2023-03-11T16:32:24.357Z,23.15
2023-03-11T16:34:51.237Z,23.48
2023-03-11T16:37:21.436Z,22.13
2023-03-11T16:39:48.840Z,21.50
2023-03-11T16:42:23.202Z,20.91
2023-03-11T16:44:50.353Z,20.25
2023-03-11T16:47:17.197Z,20.32
2023-03-11T16:49:44.118Z,20.03
2023-03-11T16:52:10.773Z,19.43
2023-03-11T16:54:37.552Z,19.31
2023-03-11T16:57:04.178Z,19.22
2023-03-11T16:59:30.828Z,19.27
2023-03-11T17:01:57.506Z,19.16
2023-03-11T17:04:24.162Z,19.22
2023-03-11T17:06:50.832Z,18.86
2023-03-11T17:09:17.488Z,18.86
2023-03-11T17:11:44.137Z,18.66
2023-03-11T17:14:16.670Z,18.84
2023-03-11T17:16:45.186Z,18.55
2023-03-11T17:19:12.163Z,18.75
2023-03-11T17:21:39.289Z,18.57
2023-03-11T17:24:07.218Z,18.30
2023-03-11T17:26:33.894Z,18.28
2023-03-11T17:29:00.598Z,18.07
2023-03-11T17:31:27.470Z,17.99
2023-03-11T17:33:54.634Z,17.85
2023-03-11T17:36:21.260Z,18.21
2023-03-11T17:38:51.105Z,18.14
2023-03-11T17:41:17.939Z,18.03
2023-03-11T17:43:45.644Z,17.70
2023-03-11T17:46:14.433Z,18.05
2023-03-11T17:48:42.495Z,17.98
2023-03-11T17:51:15.238Z,17.74
2023-03-11T17:53:45.784Z,17.81
2023-03-11T17:56:15.395Z,17.74
2023-03-11T17:58:42.241Z,17.97
2023-03-11T18:01:14.313Z,17.96
2023-03-11T18:03:42.101Z,17.85
2023-03-11T18:06:09.968Z,17.78
2023-03-11T18:08:37.052Z,17.68
2023-03-11T18:11:09.876Z,17.76
2023-03-11T18:13:38.833Z,17.72
2023-03-11T18:16:09.204Z,17.74
2023-03-11T18:18:36.989Z,17.62
2023-03-11T18:21:15.912Z,17.72
2023-03-11T18:23:43.356Z,17.48
2023-03-11T18:26:12.649Z,17.68
2023-03-11T18:28:39.883Z,17.68
2023-03-11T18:31:08.459Z,17.75
2023-03-11T18:33:35.965Z,17.71
2023-03-11T18:36:23.423Z,17.63
2023-03-11T18:38:52.004Z,17.50
2023-03-11T18:41:19.082Z,17.71
2023-03-11T18:43:45.978Z,17.62
2023-03-11T18:46:15.919Z,17.72
2023-03-11T18:48:43.128Z,17.41
2023-03-11T18:51:09.799Z,17.42
2023-03-11T18:53:36.700Z,17.63
2023-03-11T18:56:06.898Z,17.54
2023-03-11T18:58:34.011Z,17.55
2023-03-11T19:01:14.011Z,17.42
2023-03-11T19:03:48.404Z,17.37
2023-03-11T19:06:16.485Z,17.24
2023-03-11T19:08:43.670Z,17.27
2023-03-11T19:11:16.633Z,17.11
2023-03-11T19:13:47.798Z,16.86
2023-03-11T19:16:17.608Z,16.93
2023-03-11T19:18:44.673Z,17.02
2023-03-11T19:21:13.082Z,16.75
2023-03-11T19:23:39.919Z,16.91
2023-03-11T19:26:07.445Z,16.80
2023-03-11T19:28:34.235Z,17.07
2023-03-11T19:31:01.026Z,17.12
2023-03-11T19:33:28.319Z,16.89
2023-03-11T19:36:00.219Z,16.79
2023-03-11T19:38:27.448Z,17.03
2023-03-11T19:41:00.068Z,16.84
2023-03-11T19:43:27.526Z,17.00
2023-03-11T19:45:54.243Z,16.78
2023-03-11T19:48:21.298Z,16.99
2023-03-11T19:50:50.070Z,16.91
2023-03-11T19:53:17.973Z,16.61
2023-03-11T19:55:53.910Z,16.73
2023-03-11T19:58:21.514Z,16.64
2023-03-11T20:00:48.249Z,16.74
2023-03-11T20:03:16.350Z,16.67
2023-03-11T20:05:44.981Z,16.64
2023-03-11T20:08:14.393Z,16.61
2023-03-11T20:10:43.855Z,16.65
2023-03-11T20:13:11.330Z,16.36
2023-03-11T20:15:38.127Z,16.55
2023-03-11T20:18:06.262Z,16.26
2023-03-11T20:20:34.930Z,16.13
2023-03-11T20:23:04.472Z,16.13
2023-03-11T20:25:32.345Z,16.35
2023-03-11T20:28:00.200Z,16.25
2023-03-11T20:30:27.413Z,16.09
2023-03-11T20:32:54.615Z,16.17
2023-03-11T20:35:21.646Z,15.90
2023-03-11T20:37:48.487Z,16.05
2023-03-11T20:40:16.895Z,15.93
2023-03-11T20:42:46.748Z,15.97
2023-03-11T20:45:21.487Z,16.00
2023-03-11T20:47:49.969Z,15.88
2023-03-11T20:50:17.071Z,16.07
2023-03-11T20:52:43.784Z,15.97
2023-03-11T20:55:11.379Z,16.07
2023-03-11T20:57:38.895Z,16.02
2023-03-11T21:00:11.285Z,16.08
2023-03-11T21:02:40.465Z,16.07
2023-03-11T21:05:08.283Z,15.92
2023-03-11T21:07:34.986Z,15.96
2023-03-11T21:10:03.978Z,15.65
2023-03-11T21:12:31.418Z,15.59
2023-03-11T21:14:58.224Z,15.76
2023-03-11T21:17:25.061Z,15.66
2023-03-11T21:19:51.848Z,15.56
2023-03-11T21:22:18.683Z,15.53
2023-03-11T21:24:45.388Z,15.67
2023-03-11T21:27:12.085Z,15.79
2023-03-11T21:29:38.704Z,15.67
2023-03-11T21:32:05.666Z,16.28
2023-03-11T21:34:32.493Z,16.22
2023-03-11T21:36:59.456Z,16.23
2023-03-11T21:39:26.362Z,16.50
2023-03-11T21:41:56.086Z,16.47
2023-03-11T21:44:22.842Z,16.32
2023-03-11T21:46:49.576Z,16.10
2023-03-11T21:49:16.379Z,15.77
2023-03-11T21:51:43.250Z,16.04
2023-03-11T21:54:10.934Z,15.78
2023-03-11T21:56:37.778Z,15.82
2023-03-11T21:59:05.004Z,15.58
2023-03-11T22:01:32.418Z,15.64
2023-03-11T22:03:59.082Z,15.67
2023-03-11T22:06:25.771Z,15.79
2023-03-11T22:08:52.815Z,15.81
2023-03-11T22:11:20.514Z,15.48
2023-03-11T22:13:49.419Z,15.67
2023-03-11T22:16:16.343Z,15.64
2023-03-11T22:18:43.125Z,15.76
2023-03-11T22:21:10.823Z,15.64
2023-03-11T22:23:37.729Z,15.51
2023-03-11T22:26:04.564Z,15.64
2023-03-11T22:28:31.470Z,15.46
2023-03-11T22:30:58.015Z,15.35
2023-03-11T22:33:24.995Z,15.24
2023-03-11T22:35:56.847Z,15.12
2023-03-11T22:38:24.799Z,15.03
2023-03-11T22:40:51.871Z,15.12
2023-03-11T22:43:18.775Z,14.79
2023-03-11T22:45:46.179Z,14.86
2023-03-11T22:48:13.128Z,14.93
2023-03-11T22:50:41.766Z,14.82
2023-03-11T22:53:08.601Z,14.68
2023-03-11T22:55:39.912Z,14.75
2023-03-11T22:58:06.471Z,14.71
2023-03-11T23:00:33.304Z,14.82
2023-03-11T23:03:00.038Z,14.54
2023-03-11T23:05:26.720Z,14.57
2023-03-11T23:07:53.573Z,14.49
2023-03-11T23:10:21.314Z,14.42
2023-03-11T23:12:49.230Z,14.59
2023-03-11T23:15:17.252Z,14.56
2023-03-11T23:17:43.868Z,14.45
2023-03-11T23:20:13.619Z,14.59
2023-03-11T23:22:41.944Z,14.51
2023-03-11T23:25:12.464Z,14.56
2023-03-11T23:27:39.272Z,14.31
2023-03-11T23:30:06.661Z,14.60
2023-03-11T23:32:33.431Z,14.72
2023-03-11T23:35:00.193Z,15.30
2023-03-11T23:37:26.778Z,15.49
2023-03-11T23:39:53.501Z,15.37
2023-03-11T23:42:25.851Z,15.26
2023-03-11T23:44:53.563Z,15.14
2023-03-11T23:47:20.505Z,15.08
2023-03-11T23:49:47.144Z,14.93
2023-03-11T23:52:13.721Z,14.66
2023-03-11T23:54:40.374Z,14.74
2023-03-11T23:57:07.028Z,14.91
2023-03-11T23:59:33.900Z,14.88
